createdAt,value
2023-01-20T00:02:36.299Z,23.45
2023-01-20T00:05:25.070Z,27.60
2023-01-20T00:08:12.530Z,29.98
2023-01-20T00:10:59.979Z,29.65
2023-01-20T00:13:47.604Z,29.98
2023-01-20T00:16:34.870Z,26.23
2023-01-20T00:19:22.248Z,32.70
2023-01-20T00:22:11.166Z,29.85
2023-01-20T00:24:58.899Z,32.83
2023-01-20T00:27:46.792Z,30.50
2023-01-20T00:30:34.204Z,29.90
2023-01-20T00:33:21.763Z,29.33
2023-01-20T00:36:11.009Z,23.40
2023-01-20T00:39:00.250Z,26.67
2023-01-20T00:41:47.682Z,29.77
2023-01-20T00:44:35.074Z,33.15
2023-01-20T00:47:22.965Z,29.65
2023-01-20T00:50:11.521Z,25.13
2023-01-20T00:52:58.743Z,32.60
2023-01-20T00:55:47.703Z,28.10
2023-01-20T00:58:35.465Z,31.02
2023-01-20T01:01:22.916Z,30.20
2023-01-20T01:04:10.196Z,26.48
2023-01-20T01:06:57.759Z,34.95
2023-01-20T01:09:47.326Z,30.55
2023-01-20T01:12:38.835Z,33.40
2023-01-20T01:15:29.516Z,36.58
2023-01-20T01:18:19.871Z,30.20
2023-01-20T01:21:12.724Z,25.60
2023-01-20T01:24:02.203Z,27.38
2023-01-20T01:26:52.092Z,29.58
2023-01-20T01:29:44.159Z,29.90
2023-01-20T01:32:34.665Z,28.48
2023-01-20T01:35:25.177Z,23.65
2023-01-20T01:38:15.564Z,26.55
2023-01-20T01:41:05.936Z,23.98
2023-01-20T01:44:10.159Z,19.10
2023-01-20T01:47:02.131Z,23.63
2023-01-20T01:49:52.597Z,23.10
2023-01-20T01:52:44.669Z,26.10
2023-01-20T01:55:40.313Z,27.92
2023-01-20T01:58:34.531Z,33.65
2023-01-20T02:01:25.405Z,34.72
2023-01-20T02:04:18.683Z,34.17
2023-01-20T02:07:15.057Z,34.60
2023-01-20T02:10:05.225Z,33.63
2023-01-20T02:12:55.833Z,38.42
2023-01-20T02:15:52.726Z,30.85
2023-01-20T02:18:52.477Z,39.38
2023-01-20T02:22:07.982Z,32.53
2023-01-20T02:25:18.445Z,39.15
2023-01-20T02:28:24.223Z,37.83
2023-01-20T02:31:36.922Z,36.63
2023-01-20T02:34:30.419Z,24.30
2023-01-20T02:37:20.669Z,37.33
2023-01-20T02:40:19.036Z,34.88
2023-01-20T02:43:12.288Z,40.60
2023-01-20T02:46:07.794Z,32.90
2023-01-20T02:49:00.618Z,34.95
2023-01-20T02:51:55.349Z,34.63
2023-01-20T02:54:47.527Z,28.05
2023-01-20T02:57:40.673Z,29.35
2023-01-20T03:00:34.215Z,30.35
2023-01-20T03:03:25.000Z,34.80
2023-01-20T03:06:18.667Z,42.03
2023-01-20T03:09:11.949Z,33.60
2023-01-20T03:12:05.339Z,32.40
2023-01-20T03:14:53.620Z,36.80
2023-01-20T03:17:40.997Z,39.35
2023-01-20T03:20:28.590Z,31.27
2023-01-20T03:23:16.171Z,35.25
2023-01-20T03:26:09.715Z,30.27
2023-01-20T03:28:57.103Z,36.33
2023-01-20T03:31:45.899Z,33.50
2023-01-20T03:34:36.430Z,27.77
2023-01-20T03:37:24.714Z,29.40
2023-01-20T03:40:13.928Z,36.95
2023-01-20T03:43:07.372Z,31.25
2023-01-20T03:46:00.714Z,36.00
2023-01-20T03:48:51.963Z,40.20
2023-01-20T03:51:47.818Z,33.35
2023-01-20T03:54:42.158Z,51.15
2023-01-20T03:57:36.004Z,35.88
2023-01-20T04:00:29.445Z,30.02
2023-01-20T04:03:20.805Z,34.20
2023-01-20T04:06:10.653Z,37.53
2023-01-20T04:09:03.898Z,32.45
2023-01-20T04:11:51.779Z,39.83
2023-01-20T04:14:39.609Z,32.95
2023-01-20T04:17:30.093Z,30.17
2023-01-20T04:20:17.935Z,28.45
2023-01-20T04:23:07.119Z,26.25
2023-01-20T04:25:54.455Z,31.95
2023-01-20T04:28:41.813Z,29.20
2023-01-20T04:31:31.308Z,28.27
2023-01-20T04:34:20.352Z,24.17
2023-01-20T04:37:07.618Z,26.95
2023-01-20T04:39:55.074Z,24.02
2023-01-20T04:42:42.628Z,22.90
2023-01-20T04:45:30.100Z,22.70
2023-01-20T04:48:17.722Z,25.08
2023-01-20T04:51:07.651Z,23.27
2023-01-20T04:53:57.864Z,17.52
2023-01-20T04:56:45.303Z,19.67
2023-01-20T04:59:32.760Z,21.92
2023-01-20T05:02:20.417Z,19.73
2023-01-20T05:05:08.469Z,23.60
2023-01-20T05:07:59.514Z,23.63
2023-01-20T05:10:46.617Z,21.25
2023-01-20T05:13:38.544Z,30.15
2023-01-20T05:16:31.892Z,29.58
2023-01-20T05:19:19.181Z,32.50
2023-01-20T05:22:06.687Z,24.98
2023-01-20T05:24:55.780Z,26.67
2023-01-20T05:27:45.066Z,29.80
2023-01-20T05:30:32.272Z,28.75
2023-01-20T05:33:20.011Z,33.22
2023-01-20T05:36:08.692Z,26.80
2023-01-20T05:38:56.471Z,31.15
2023-01-20T05:41:46.499Z,30.65
2023-01-20T05:44:35.043Z,29.98
2023-01-20T05:47:22.643Z,33.22
2023-01-20T05:50:11.544Z,35.25
2023-01-20T05:52:58.812Z,31.45
2023-01-20T05:55:46.096Z,44.33
2023-01-20T05:58:34.906Z,33.33
2023-01-20T06:01:22.358Z,44.38
2023-01-20T06:04:10.008Z,39.70
2023-01-20T06:06:57.499Z,38.08
2023-01-20T06:09:45.042Z,40.70
2023-01-20T06:12:32.502Z,40.53
2023-01-20T06:15:21.549Z,38.50
2023-01-20T06:18:12.765Z,41.67
2023-01-20T06:21:00.500Z,40.53
2023-01-20T06:23:47.452Z,37.40
2023-01-20T06:26:34.569Z,38.20
2023-01-20T06:29:22.302Z,35.38
2023-01-20T06:32:11.927Z,26.13
2023-01-20T06:34:59.227Z,38.15
2023-01-20T06:37:46.840Z,39.95
2023-01-20T06:40:34.519Z,36.83
2023-01-20T06:43:22.025Z,41.90
2023-01-20T06:46:12.836Z,37.60
2023-01-20T06:49:01.638Z,35.55
2023-01-20T06:51:49.528Z,33.90
2023-01-20T06:54:36.888Z,40.03
2023-01-20T06:57:24.438Z,29.23
2023-01-20T07:00:13.390Z,37.17
2023-01-20T07:03:00.941Z,32.05
2023-01-20T07:05:56.249Z,34.20
2023-01-20T07:08:44.082Z,38.67
2023-01-20T07:11:31.770Z,34.42
2023-01-20T07:14:19.274Z,40.50
2023-01-20T07:17:11.756Z,36.83
2023-01-20T07:19:59.214Z,31.20
2023-01-20T07:22:48.452Z,29.92
2023-01-20T07:25:38.053Z,36.13
2023-01-20T07:28:25.758Z,26.45
2023-01-20T07:31:16.105Z,32.08
2023-01-20T07:34:03.966Z,30.70
2023-01-20T07:36:52.815Z,31.60
2023-01-20T07:39:42.231Z,34.25
2023-01-20T07:42:29.776Z,35.58
2023-01-20T07:45:17.412Z,37.17
2023-01-20T07:48:05.704Z,31.60
2023-01-20T07:50:57.838Z,26.65
2023-01-20T07:53:47.183Z,26.17
2023-01-20T07:56:36.250Z,25.77
2023-01-20T07:59:23.718Z,30.02
2023-01-20T08:02:12.168Z,27.17
2023-01-20T08:05:00.132Z,24.23
2023-01-20T08:07:52.158Z,24.38
2023-01-20T08:10:39.469Z,28.67
2023-01-20T08:13:28.476Z,18.10
2023-01-20T08:16:18.576Z,25.80
2023-01-20T08:19:06.181Z,20.00
2023-01-20T08:21:53.961Z,22.33
2023-01-20T08:24:41.675Z,23.25
2023-01-20T08:27:28.955Z,25.67
2023-01-20T08:30:18.681Z,23.98
2023-01-20T08:33:06.008Z,19.55
2023-01-20T08:35:55.800Z,22.63
2023-01-20T08:38:43.100Z,20.80
2023-01-20T08:41:32.431Z,22.40
2023-01-20T08:44:20.637Z,23.70
2023-01-20T08:47:09.303Z,16.10
2023-01-20T08:49:56.472Z,21.35
2023-01-20T08:52:43.997Z,22.27
2023-01-20T08:55:31.323Z,29.15
2023-01-20T08:58:18.970Z,26.92
2023-01-20T09:01:09.270Z,25.63
2023-01-20T09:04:05.839Z,22.30
2023-01-20T09:06:54.028Z,23.52
2023-01-20T09:09:41.361Z,22.85
2023-01-20T09:12:28.299Z,23.73
2023-01-20T09:15:15.578Z,22.98
2023-01-20T09:18:03.349Z,20.25
2023-01-20T09:20:52.534Z,21.63
2023-01-20T09:23:42.826Z,22.08
2023-01-20T09:26:38.381Z,18.13
2023-01-20T09:29:26.121Z,15.13
2023-01-20T09:32:15.601Z,19.67
2023-01-20T09:35:03.807Z,17.63
2023-01-20T09:38:09.961Z,16.73
2023-01-20T09:41:25.687Z,19.42
2023-01-20T09:44:25.942Z,19.40
2023-01-20T09:47:24.008Z,19.23
2023-01-20T09:50:43.900Z,13.05
2023-01-20T09:53:44.781Z,11.65
2023-01-20T09:56:38.954Z,15.40
2023-01-20T09:59:29.193Z,14.23
2023-01-20T10:02:21.918Z,16.17
2023-01-20T10:05:14.417Z,17.88
2023-01-20T10:08:05.869Z,16.25
2023-01-20T10:10:58.495Z,20.90
2023-01-20T10:13:51.672Z,14.27
2023-01-20T10:16:44.391Z,12.48
2023-01-20T10:19:38.814Z,12.65
2023-01-20T10:22:32.035Z,13.07
2023-01-20T10:25:23.811Z,16.50
2023-01-20T10:28:15.773Z,16.33
2023-01-20T10:31:06.158Z,14.05
2023-01-20T10:33:56.864Z,15.13
2023-01-20T10:36:50.570Z,18.23
2023-01-20T10:39:42.168Z,14.93
2023-01-20T10:42:30.146Z,14.68
2023-01-20T10:45:24.001Z,12.10
2023-01-20T10:48:23.723Z,15.02
2023-01-20T10:51:18.318Z,13.95
2023-01-20T10:54:15.550Z,14.77
2023-01-20T10:57:05.168Z,14.93
2023-01-20T10:59:55.474Z,11.57
2023-01-20T11:02:44.992Z,13.30
2023-01-20T11:05:38.144Z,11.55
2023-01-20T11:08:28.696Z,16.63
2023-01-20T11:11:18.679Z,14.32
2023-01-20T11:14:06.165Z,19.38
2023-01-20T11:16:59.714Z,14.07
2023-01-20T11:19:50.549Z,19.95
2023-01-20T11:22:39.039Z,17.65
2023-01-20T11:25:27.750Z,16.05
2023-01-20T11:28:18.403Z,18.17
2023-01-20T11:31:06.715Z,16.48
2023-01-20T11:34:00.113Z,12.55
2023-01-20T11:36:48.952Z,14.57
2023-01-20T11:39:38.277Z,15.18
2023-01-20T11:42:27.547Z,17.45
2023-01-20T11:45:30.462Z,13.27
2023-01-20T11:48:21.698Z,18.52
2023-01-20T11:51:20.486Z,17.15
2023-01-20T11:54:13.601Z,13.45
2023-01-20T11:57:04.743Z,18.70
2023-01-20T11:59:52.012Z,15.50
2023-01-20T12:02:41.270Z,16.90
2023-01-20T12:05:36.271Z,14.48
2023-01-20T12:08:30.277Z,14.07
2023-01-20T12:14:23.154Z,15.05
2023-01-20T12:17:21.790Z,17.25
2023-01-20T12:20:20.162Z,15.23
2023-01-20T12:23:21.351Z,13.90
2023-01-20T12:26:11.554Z,16.65
2023-01-20T12:29:06.076Z,14.40
2023-01-20T12:31:54.499Z,13.48
2023-01-20T12:34:42.229Z,11.93
2023-01-20T12:37:39.506Z,11.88
2023-01-20T12:40:36.797Z,16.00
2023-01-20T12:43:28.078Z,15.60
2023-01-20T12:46:28.294Z,14.07
2023-01-20T12:49:28.577Z,14.25
2023-01-20T12:52:28.780Z,16.50
2023-01-20T12:55:24.547Z,12.45
2023-01-20T12:58:21.964Z,11.80
2023-01-20T13:01:29.676Z,14.73
2023-01-20T13:04:42.725Z,16.98
2023-01-20T13:07:49.881Z,12.40
2023-01-20T13:10:51.013Z,16.33
2023-01-20T13:13:56.988Z,15.27
2023-01-20T13:16:51.243Z,16.55
2023-01-20T13:19:39.532Z,16.63
2023-01-20T13:22:27.031Z,14.38
2023-01-20T13:25:17.188Z,16.05
2023-01-20T13:28:05.253Z,17.35
2023-01-20T13:30:54.828Z,15.18
2023-01-20T13:33:43.911Z,24.10
2023-01-20T13:36:32.451Z,13.18
2023-01-20T13:39:42.062Z,16.17
2023-01-20T13:42:32.513Z,15.55
2023-01-20T13:45:23.848Z,18.48
2023-01-20T13:48:24.485Z,19.75
2023-01-20T13:51:47.134Z,22.17
2023-01-20T13:54:45.986Z,14.60
2023-01-20T13:57:37.680Z,18.92
2023-01-20T14:00:25.246Z,17.02
2023-01-20T14:03:22.280Z,18.45
2023-01-20T14:06:21.228Z,19.45
2023-01-20T14:09:20.385Z,15.43
2023-01-20T14:12:09.290Z,22.45
2023-01-20T14:14:56.544Z,19.38
2023-01-20T14:17:44.135Z,24.23
2023-01-20T14:20:32.331Z,21.23
2023-01-20T14:23:31.962Z,26.20
2023-01-20T14:26:26.037Z,24.83
2023-01-20T14:29:20.119Z,21.05
2023-01-20T14:32:21.136Z,22.17
2023-01-20T14:35:15.637Z,22.88
2023-01-20T14:38:03.440Z,22.58
2023-01-20T14:40:50.889Z,19.40
2023-01-20T14:43:46.552Z,22.88
2023-01-20T14:46:36.732Z,22.80
2023-01-20T14:49:27.372Z,23.45
2023-01-20T14:52:24.019Z,18.80
2023-01-20T14:55:30.891Z,21.33
2023-01-20T14:58:20.044Z,19.85
2023-01-20T15:01:20.910Z,21.23
2023-01-20T15:04:12.949Z,17.45
2023-01-20T15:07:00.256Z,18.20
2023-01-20T15:09:55.274Z,21.02
2023-01-20T15:12:55.373Z,16.40
2023-01-20T15:15:43.609Z,17.52
2023-01-20T15:18:32.351Z,17.33
2023-01-20T15:21:27.525Z,16.90
2023-01-20T15:24:17.091Z,21.98
2023-01-20T15:27:22.706Z,18.50
2023-01-20T15:30:16.818Z,19.00
2023-01-20T15:33:04.689Z,22.52
2023-01-20T15:35:55.388Z,18.52
2023-01-20T15:38:42.624Z,21.08
2023-01-20T15:41:30.120Z,16.98
2023-01-20T15:44:17.367Z,16.02
2023-01-20T15:47:17.675Z,20.02
2023-01-20T15:50:05.562Z,21.52
2023-01-20T15:52:54.793Z,17.75
2023-01-20T15:55:47.534Z,17.42
2023-01-20T15:58:35.935Z,20.58
2023-01-20T16:01:26.330Z,18.98
2023-01-20T16:04:14.124Z,16.65
2023-01-20T16:07:01.496Z,18.70
2023-01-20T16:09:50.539Z,16.38
2023-01-20T16:12:38.158Z,18.50
2023-01-20T16:15:25.822Z,21.50
2023-01-20T16:18:15.533Z,23.83
2023-01-20T16:21:03.022Z,22.48
2023-01-20T16:23:50.553Z,20.17
2023-01-20T16:26:39.462Z,19.45
2023-01-20T16:29:27.265Z,20.83
2023-01-20T16:32:17.397Z,16.13
2023-01-20T16:35:06.889Z,17.38
2023-01-20T16:37:54.238Z,20.67
2023-01-20T16:40:47.471Z,18.17
2023-01-20T16:43:40.980Z,18.87
2023-01-20T16:46:29.885Z,24.98
2023-01-20T16:49:17.995Z,20.65
2023-01-20T16:52:05.914Z,23.58
2023-01-20T16:54:53.300Z,22.85
2023-01-20T16:57:40.674Z,19.83
2023-01-20T17:00:29.710Z,20.17
2023-01-20T17:03:17.390Z,23.60
2023-01-20T17:06:10.485Z,20.30
2023-01-20T17:09:00.422Z,19.50
2023-01-20T17:11:47.764Z,23.55
2023-01-20T17:14:35.934Z,20.08
2023-01-20T17:17:24.958Z,19.25
2023-01-20T17:20:12.512Z,21.98
2023-01-20T17:23:00.735Z,21.85
2023-01-20T17:25:48.493Z,23.85
2023-01-20T17:28:36.332Z,20.00
2023-01-20T17:31:24.249Z,17.83
2023-01-20T17:34:12.925Z,21.52
2023-01-20T17:37:00.417Z,20.85
2023-01-20T17:39:48.119Z,23.88
2023-01-20T17:42:35.504Z,18.50
2023-01-20T17:45:23.011Z,24.63
2023-01-20T17:48:10.641Z,23.02
2023-01-20T17:51:00.015Z,21.27
2023-01-20T17:53:48.419Z,21.60
2023-01-20T17:56:35.661Z,24.42
2023-01-20T17:59:23.225Z,16.92
2023-01-20T18:02:12.392Z,19.90
2023-01-20T18:04:59.665Z,20.90
2023-01-20T18:07:49.909Z,26.15
2023-01-20T18:10:37.232Z,27.70
2023-01-20T18:13:24.696Z,29.80
2023-01-20T18:16:14.287Z,24.65
2023-01-20T18:19:02.299Z,22.65
2023-01-20T18:21:49.750Z,24.88
2023-01-20T18:24:38.696Z,23.65
2023-01-20T18:27:26.405Z,20.33
2023-01-20T18:30:15.327Z,29.15
2023-01-20T18:33:02.733Z,21.02
2023-01-20T18:35:50.187Z,21.58
2023-01-20T18:38:43.138Z,25.25
2023-01-20T18:41:35.739Z,22.08
2023-01-20T18:44:24.335Z,32.08
2023-01-20T18:47:11.754Z,32.05
2023-01-20T18:49:59.439Z,28.17
2023-01-20T18:52:46.955Z,26.75
2023-01-20T18:55:34.368Z,18.67
2023-01-20T18:58:22.783Z,23.83
2023-01-20T19:01:12.819Z,20.30
2023-01-20T19:04:00.710Z,22.08
2023-01-20T19:06:48.233Z,16.63
2023-01-20T19:09:35.680Z,19.35
2023-01-20T19:12:22.787Z,18.35
2023-01-20T19:15:12.235Z,22.70
2023-01-20T19:17:59.281Z,21.20
2023-01-20T19:20:46.421Z,20.67
2023-01-20T19:23:33.831Z,21.15
2023-01-20T19:26:22.285Z,19.83
2023-01-20T19:29:15.670Z,21.35
2023-01-20T19:32:04.610Z,19.40
2023-01-20T19:34:52.193Z,22.70
2023-01-20T19:37:39.557Z,20.35
2023-01-20T19:40:27.134Z,20.75
2023-01-20T19:43:14.749Z,19.13
2023-01-20T19:46:03.426Z,18.88
2023-01-20T19:48:52.763Z,22.48
2023-01-20T19:51:40.271Z,23.25
2023-01-20T19:54:30.953Z,17.67
2023-01-20T19:57:18.612Z,21.02
2023-01-20T20:00:07.397Z,17.35
2023-01-20T20:02:55.701Z,16.08
2023-01-20T20:05:44.656Z,21.48
2023-01-20T20:08:32.496Z,17.40
2023-01-20T20:11:20.194Z,18.60
2023-01-20T20:14:09.541Z,17.65
2023-01-20T20:16:56.587Z,19.55
2023-01-20T20:19:43.830Z,15.95
2023-01-20T20:22:32.927Z,24.48
2023-01-20T20:25:20.562Z,19.60
2023-01-20T20:28:08.356Z,19.70
2023-01-20T20:30:56.623Z,21.33
2023-01-20T20:33:45.471Z,21.52
2023-01-20T20:36:33.618Z,22.20
2023-01-20T20:39:22.251Z,21.40
2023-01-20T20:42:09.833Z,23.50
2023-01-20T20:44:57.394Z,16.70
2023-01-20T20:47:45.116Z,21.45
2023-01-20T20:50:32.830Z,16.63
2023-01-20T20:53:20.325Z,20.17
2023-01-20T20:56:11.696Z,18.38
2023-01-20T20:59:02.298Z,19.63
2023-01-20T21:01:50.345Z,17.10
2023-01-20T21:04:37.504Z,24.23
2023-01-20T21:07:25.144Z,21.35
2023-01-20T21:10:15.635Z,22.23
2023-01-20T21:13:07.052Z,26.92
2023-01-20T21:15:59.705Z,21.25
2023-01-20T21:18:47.266Z,17.30
2023-01-20T21:21:34.809Z,21.00
2023-01-20T21:24:25.968Z,20.85
2023-01-20T21:27:13.410Z,18.70
2023-01-20T21:30:02.198Z,19.13
2023-01-20T21:32:49.817Z,17.45
2023-01-20T21:35:38.556Z,16.40
2023-01-20T21:38:25.682Z,17.33
2023-01-20T21:41:15.167Z,17.35
2023-01-20T21:44:19.753Z,21.95
2023-01-20T21:47:08.901Z,21.00
2023-01-20T21:50:14.078Z,17.17
2023-01-20T21:53:01.694Z,20.35
2023-01-20T21:55:49.273Z,23.85
2023-01-20T21:58:36.808Z,21.15
2023-01-20T22:01:24.400Z,17.50
2023-01-20T22:04:13.333Z,19.40
2023-01-20T22:07:01.124Z,22.80
2023-01-20T22:09:48.673Z,23.50
2023-01-20T22:12:36.097Z,17.63
2023-01-20T22:15:23.634Z,27.05
2023-01-20T22:18:11.196Z,25.00
2023-01-20T22:21:03.714Z,20.63
2023-01-20T22:23:50.876Z,20.45
2023-01-20T22:26:38.136Z,23.75
2023-01-20T22:29:26.175Z,20.08
2023-01-20T22:32:14.208Z,22.17
2023-01-20T22:35:01.756Z,21.52
2023-01-20T22:37:50.740Z,21.73
2023-01-20T22:40:38.317Z,19.02
2023-01-20T22:43:25.967Z,18.85
2023-01-20T22:46:14.322Z,18.55
2023-01-20T22:49:01.443Z,16.35
2023-01-20T22:51:49.093Z,20.73
2023-01-20T22:54:38.162Z,18.38
2023-01-20T22:57:25.819Z,23.08
2023-01-20T23:00:13.818Z,21.08
2023-01-20T23:03:01.395Z,18.15
2023-01-20T23:05:52.389Z,18.88
2023-01-20T23:08:39.948Z,16.73
2023-01-20T23:11:28.635Z,18.73
2023-01-20T23:14:16.530Z,22.95
2023-01-20T23:17:03.987Z,20.73
2023-01-20T23:19:51.323Z,18.65
2023-01-20T23:22:38.721Z,19.80
2023-01-20T23:25:26.276Z,17.13
2023-01-20T23:28:15.510Z,20.10
2023-01-20T23:31:03.399Z,17.02
2023-01-20T23:33:51.695Z,15.55
2023-01-20T23:36:39.170Z,18.63
2023-01-20T23:39:26.563Z,17.50
2023-01-20T23:42:14.078Z,15.85
2023-01-20T23:45:02.899Z,19.17
2023-01-20T23:47:50.269Z,17.58
2023-01-20T23:50:37.924Z,22.13
2023-01-20T23:53:25.656Z,19.83
2023-01-20T23:56:15.284Z,18.55
2023-01-20T23:59:02.810Z,20.15
